Aérodrome :
LOGIN :

S'inscrire | Disclaimer

   EN    FR    IT 

 










Légende :    VFR   VFR Marginal   IFR   IFR Intensif   IFR Très Intensif
Visi : 
Plafond : 
>= 8 km
>= 3000ft
5 à 8 km
1000 à 3000 ft
1500m à 5 km
500 à 1000 ft
800 à 1500m
200 à 500 ft
< 800m
< 200 ft
Symboles :   Orages  Brouillard  Fortes neiges  Fortes précipitations  Vent > 20 kt
SIGMETs :   Divers  Orages  Givrage  Turbulence  Onde Orograph.  Cendres Volcan.







- Altitude de l'aérodrome : 1416 ft
- Code IATA : ZRH


LSZH - Zurich

DERNIER METAR :
  • 150420Z VRB03KT 9999 FEW025 OVC028 M02/M06 Q1022 NOSIG

METARs EXPIRÉS :
  • 150350Z VRB03KT 9999 OVC026 M02/M06 Q1023 NOSIG
  • 150320Z 33003KT 9999 OVC026 M02/M05 Q1023 NOSIG
  • 150250Z 32004KT 9999 OVC026 M02/M05 Q1023 NOSIG
  • 150220Z 32004KT 9999 OVC026 M02/M05 Q1022 NOSIG
  • 150150Z 31003KT 9999 OVC026 M01/M06 Q1022 NOSIG
  • 150120Z VRB02KT 9999 OVC026 M01/M06 Q1022 NOSIG

TAF AMD TAF LSZH
Valide du 15 à 03h jusqu'au 16 à 09h UTC


150311Z 1503/1609 VRB03KT 9999 OVC025 TX01/1514Z TNM03/1505Z TNM03/1601Z
BECMG 1507/1510 06007KT
PROB40 1513/1524 CAVOK
BECMG 1515/1518 VRB03KT
BECMG 1601/1603 1500 SN OVC009
PROB40
TEMPO 1603/1606 0800 +SN VV004
BECMG 1607/1609 4000 BR -RASN BKN014
PROB40
TEMPO 1607/1609 -FZRA
ATIS : +41 43 816 2295 (DEP) +41 43 816 2294 (ARR)
Pas de NOTAMs connus pour ce terrain.



MET'MAP, la Météo Aéronautique d'un coup d'oeil ! - Copyright ORBIFLY Décembre 2007 - Disclaimer

ORBIFLY MET'MAP TEAM :

Programmation & Développement : Alexandra Zaïnal
Conception & Développement : Baudouin d'Aumeries
Co-Programmation & Développement : Marc-Olivier Méhu
Soutien technique & logistique : Manuel Goepfert

Contact : metmap@orbifly.com




SOURCES & CREDITS :

   NOAA